createdAt,value
2023-11-22T00:00:00.437Z,2.16
2023-11-22T00:05:00.407Z,2.09
2023-11-22T00:10:00.396Z,2.02
2023-11-22T00:15:02.632Z,2.35
2023-11-22T00:20:00.408Z,2.25
2023-11-22T00:25:00.453Z,2.32
2023-11-22T00:30:01.448Z,2.42
2023-11-22T00:35:01.557Z,2.59
2023-11-22T00:40:00.436Z,3.37
2023-11-22T00:45:01.679Z,2.55
2023-11-22T00:50:00.383Z,2.62
2023-11-22T00:55:02.343Z,2.48
2023-11-22T01:00:00.952Z,2.78
2023-11-22T01:05:00.429Z,2.51
2023-11-22T01:10:00.422Z,2.87
2023-11-22T01:15:01.706Z,2.29
2023-11-22T01:20:00.392Z,2.55
2023-11-22T01:25:00.454Z,2.78
2023-11-22T01:30:02.072Z,2.09
2023-11-22T01:35:03.232Z,1.73
2023-11-22T01:40:00.349Z,1.99
2023-11-22T01:45:00.803Z,1.79
2023-11-22T01:50:00.725Z,1.86
2023-11-22T01:55:01.724Z,1.68
2023-11-22T02:00:01.175Z,1.84
2023-11-22T02:05:00.391Z,1.60
2023-11-22T02:10:01.341Z,2.74
2023-11-22T02:15:02.323Z,1.46
2023-11-22T02:20:00.453Z,2.18
2023-11-22T02:25:00.383Z,1.61
2023-11-22T02:30:00.550Z,3.07
2023-11-22T02:35:03.002Z,2.53
2023-11-22T02:40:00.312Z,2.72
2023-11-22T02:45:00.983Z,2.58
2023-11-22T02:50:00.555Z,3.32
2023-11-22T02:55:01.548Z,2.96
2023-11-22T03:00:00.540Z,4.23
2023-11-22T03:05:00.403Z,4.59
2023-11-22T03:10:00.382Z,5.10
2023-11-22T03:15:01.838Z,5.26
2023-11-22T03:20:00.429Z,6.52
2023-11-22T03:25:00.765Z,6.27
2023-11-22T03:30:00.454Z,6.58
2023-11-22T03:35:01.307Z,6.81
2023-11-22T03:40:00.352Z,6.27
2023-11-22T03:45:00.545Z,7.02
2023-11-22T03:50:00.515Z,6.84
2023-11-22T03:55:02.891Z,6.51
2023-11-22T04:00:02.669Z,8.41
2023-11-22T04:05:01.100Z,8.40
2023-11-22T04:10:01.042Z,8.35
2023-11-22T04:15:04.689Z,8.17
2023-11-22T04:20:00.576Z,9.07
2023-11-22T04:25:00.673Z,8.15
2023-11-22T04:30:04.153Z,12.45
2023-11-22T04:35:02.499Z,9.89
2023-11-22T04:40:00.968Z,8.96
2023-11-22T04:45:00.830Z,8.95
2023-11-22T04:50:00.461Z,10.43
2023-11-22T04:55:03.312Z,10.07
2023-11-22T05:00:00.379Z,10.59
2023-11-22T05:05:00.623Z,9.92
2023-11-22T05:10:00.468Z,10.31
2023-11-22T05:15:03.776Z,11.13
2023-11-22T05:20:00.378Z,10.98
2023-11-22T05:25:00.410Z,11.01
2023-11-22T05:30:01.716Z,10.97
2023-11-22T05:35:00.422Z,9.98
2023-11-22T05:40:00.506Z,10.88
2023-11-22T05:45:01.137Z,11.65
2023-11-22T05:50:00.476Z,13.01
2023-11-22T05:55:02.771Z,13.38
2023-11-22T06:00:00.383Z,16.35
2023-11-22T06:05:00.479Z,17.94
2023-11-22T06:10:00.383Z,19.38
2023-11-22T06:15:02.948Z,18.28
2023-11-22T06:20:00.400Z,18.26
2023-11-22T06:25:00.484Z,19.19
2023-11-22T06:30:02.386Z,18.45
2023-11-22T06:35:03.503Z,20.31
2023-11-22T06:40:00.340Z,20.18
2023-11-22T06:45:00.474Z,22.13
2023-11-22T06:50:00.856Z,23.02
2023-11-22T06:55:00.693Z,23.88
2023-11-22T07:00:01.468Z,21.72
2023-11-22T07:05:00.836Z,23.86
2023-11-22T07:10:00.989Z,22.35
2023-11-22T07:15:03.831Z,23.98
2023-11-22T07:20:00.474Z,24.37
2023-11-22T07:25:00.461Z,23.25
2023-11-22T07:30:00.500Z,22.39
2023-11-22T07:35:01.652Z,19.15
2023-11-22T07:40:00.404Z,20.11
2023-11-22T07:45:01.175Z,19.73
2023-11-22T07:50:00.369Z,20.26
2023-11-22T07:55:03.665Z,19.76
2023-11-22T08:00:01.251Z,20.09
2023-11-22T08:05:00.359Z,18.83
2023-11-22T08:10:00.471Z,22.91
2023-11-22T08:15:02.852Z,22.58
2023-11-22T08:20:00.293Z,20.18
2023-11-22T08:25:00.492Z,20.86
2023-11-22T08:30:00.344Z,22.74
2023-11-22T08:35:00.340Z,23.45
2023-11-22T08:40:00.351Z,24.93
2023-11-22T08:45:00.401Z,23.85
2023-11-22T08:50:00.412Z,21.98
2023-11-22T08:55:03.571Z,22.64
2023-11-22T09:00:00.499Z,22.77
2023-11-22T09:05:00.317Z,24.17
2023-11-22T09:10:00.585Z,23.25
2023-11-22T09:15:03.432Z,22.55
2023-11-22T09:20:00.468Z,24.46
2023-11-22T09:25:00.737Z,21.56
2023-11-22T09:30:01.447Z,24.90
2023-11-22T09:35:02.461Z,24.76
2023-11-22T09:40:02.690Z,25.95
2023-11-22T09:45:00.714Z,28.76
2023-11-22T09:50:00.402Z,29.45
2023-11-22T09:55:02.832Z,25.54
2023-11-22T10:00:00.567Z,24.06
2023-11-22T10:05:01.169Z,24.27
2023-11-22T10:10:02.542Z,24.50
2023-11-22T10:15:03.180Z,24.76
2023-11-22T10:20:01.414Z,24.20
2023-11-22T10:25:01.040Z,24.86
2023-11-22T10:30:00.869Z,25.12
2023-11-22T10:40:01.608Z,24.60
2023-11-22T10:45:00.349Z,25.21
2023-11-22T10:50:00.675Z,28.17
2023-11-22T10:55:02.683Z,27.23
2023-11-22T11:00:00.277Z,28.90
2023-11-22T11:05:01.049Z,29.07
2023-11-22T11:10:09.965Z,27.67
2023-11-22T11:15:02.161Z,27.39
2023-11-22T11:20:00.330Z,26.98
2023-11-22T11:25:01.908Z,28.83
2023-11-22T11:30:01.890Z,29.67
2023-11-22T11:35:00.373Z,28.37
2023-11-22T11:40:02.345Z,29.20
2023-11-22T11:45:00.455Z,30.47
2023-11-22T11:50:02.827Z,29.75
2023-11-22T11:55:03.555Z,30.74
2023-11-22T12:00:01.653Z,28.95
2023-11-22T12:05:03.422Z,30.88
2023-11-22T12:10:01.633Z,30.01
2023-11-22T12:15:03.102Z,31.39
2023-11-22T12:20:00.713Z,28.48
2023-11-22T12:25:01.925Z,30.35
2023-11-22T12:30:00.954Z,30.79
2023-11-22T12:35:02.749Z,28.86
2023-11-22T12:40:01.357Z,31.68
2023-11-22T12:45:00.891Z,28.42
2023-11-22T12:50:01.245Z,28.06
2023-11-22T12:55:03.069Z,26.69
2023-11-22T13:00:01.131Z,29.61
2023-11-22T13:05:01.590Z,27.27
2023-11-22T13:10:02.332Z,28.69
2023-11-22T13:15:03.625Z,28.47
2023-11-22T13:20:00.881Z,27.89
2023-11-22T13:25:01.592Z,28.31
2023-11-22T13:30:00.789Z,27.43
2023-11-22T13:35:03.048Z,29.57
2023-11-22T13:40:00.618Z,28.43
2023-11-22T13:45:01.568Z,27.56
2023-11-22T13:50:00.928Z,27.58
2023-11-22T13:55:02.980Z,27.83
2023-11-22T14:00:00.502Z,28.71
2023-11-22T14:05:00.504Z,26.95
2023-11-22T14:10:01.771Z,26.61
2023-11-22T14:15:04.440Z,26.55
2023-11-22T14:20:01.482Z,28.52
2023-11-22T14:25:00.506Z,30.34
2023-11-22T14:30:00.448Z,29.30
2023-11-22T14:35:02.705Z,30.82
2023-11-22T14:40:02.235Z,28.87
2023-11-22T14:45:00.470Z,30.11
2023-11-22T14:50:01.348Z,28.00
2023-11-22T14:55:02.216Z,28.19
2023-11-22T15:00:00.399Z,28.33
2023-11-22T15:05:00.608Z,29.00
2023-11-22T15:10:01.543Z,27.39
2023-11-22T15:15:03.718Z,28.15
2023-11-22T15:20:00.300Z,28.41
2023-11-22T15:25:00.515Z,28.29
2023-11-22T15:30:01.103Z,26.86
2023-11-22T15:35:01.564Z,28.30
2023-11-22T15:40:00.409Z,30.46
2023-11-22T15:45:01.509Z,29.59
2023-11-22T15:50:00.489Z,31.94
2023-11-22T15:55:02.642Z,30.24
2023-11-22T16:00:01.928Z,33.31
2023-11-22T16:05:00.737Z,31.46
2023-11-22T16:10:01.660Z,34.86
2023-11-22T16:15:02.626Z,34.06
2023-11-22T16:20:00.348Z,31.36
2023-11-22T16:25:06.747Z,27.27
2023-11-22T16:30:00.603Z,29.07
2023-11-22T16:35:01.425Z,25.88
2023-11-22T16:40:00.603Z,28.38
2023-11-22T16:45:00.466Z,26.37
2023-11-22T16:50:00.918Z,26.39
2023-11-22T16:55:03.005Z,26.86
2023-11-22T17:00:00.652Z,26.71
2023-11-22T17:05:00.824Z,27.06
2023-11-22T17:10:00.570Z,24.81
2023-11-22T17:15:00.448Z,26.03
2023-11-22T17:20:00.529Z,27.32
2023-11-22T17:25:01.044Z,26.80
2023-11-22T17:30:03.098Z,27.23
2023-11-22T17:35:02.457Z,26.27
2023-11-22T17:40:00.769Z,27.77
2023-11-22T17:45:02.827Z,30.74
2023-11-22T17:50:00.368Z,28.99
2023-11-22T17:55:03.480Z,35.43
2023-11-22T18:00:01.224Z,28.04
2023-11-22T18:05:00.429Z,26.36
2023-11-22T18:10:00.654Z,26.21
2023-11-22T18:15:03.765Z,30.38
2023-11-22T18:20:00.473Z,28.58
2023-11-22T18:25:00.424Z,28.86
2023-11-22T18:30:01.150Z,30.12
2023-11-22T18:35:01.135Z,30.69
2023-11-22T18:40:00.664Z,31.75
2023-11-22T18:45:02.373Z,30.97
2023-11-22T18:50:00.416Z,31.24
2023-11-22T18:55:02.652Z,29.22
2023-11-22T19:00:01.635Z,31.40
2023-11-22T19:05:00.740Z,36.21
2023-11-22T19:10:00.820Z,36.98
2023-11-22T19:15:01.403Z,38.04
2023-11-22T19:20:00.442Z,39.28
2023-11-22T19:25:00.575Z,33.34
2023-11-22T19:30:00.689Z,36.28
2023-11-22T19:35:00.631Z,33.73
2023-11-22T19:40:01.094Z,36.67
2023-11-22T19:45:02.317Z,35.19
2023-11-22T19:50:00.424Z,36.34
2023-11-22T19:55:01.952Z,36.54
2023-11-22T20:00:04.088Z,36.20
2023-11-22T20:05:00.979Z,34.79
2023-11-22T20:10:02.042Z,34.53
2023-11-22T20:15:01.825Z,32.05
2023-11-22T20:20:00.379Z,33.22
2023-11-22T20:25:00.625Z,33.19
2023-11-22T20:30:00.805Z,32.65
2023-11-22T20:35:00.581Z,32.83
2023-11-22T20:40:00.883Z,30.58
2023-11-22T20:45:00.499Z,30.47
2023-11-22T20:50:00.529Z,32.27
2023-11-22T20:55:00.683Z,30.71
2023-11-22T21:00:00.666Z,28.46
2023-11-22T21:05:00.449Z,28.54
2023-11-22T21:10:00.531Z,26.57
2023-11-22T21:15:05.509Z,24.90
2023-11-22T21:20:00.427Z,22.37
2023-11-22T21:25:00.505Z,23.13
2023-11-22T21:30:01.185Z,21.61
2023-11-22T21:35:01.826Z,20.83
2023-11-22T21:40:02.957Z,21.44
2023-11-22T21:45:02.167Z,20.40
2023-11-22T21:50:00.535Z,19.87
2023-11-22T21:55:04.037Z,20.56
2023-11-22T22:00:00.648Z,18.43
2023-11-22T22:05:00.900Z,17.98
2023-11-22T22:10:01.036Z,19.13
2023-11-22T22:15:02.534Z,19.67
2023-11-22T22:20:00.419Z,16.52
2023-11-22T22:25:01.047Z,15.49
2023-11-22T22:30:00.756Z,15.29
2023-11-22T22:35:02.524Z,15.15
2023-11-22T22:40:01.035Z,14.94
2023-11-22T22:45:00.769Z,15.16
2023-11-22T22:50:00.538Z,16.57
2023-11-22T22:55:01.079Z,16.47
2023-11-22T23:00:00.858Z,16.37
2023-11-22T23:05:00.923Z,15.96
2023-11-22T23:10:00.372Z,14.66
2023-11-22T23:15:03.138Z,15.49
2023-11-22T23:20:00.340Z,14.81
2023-11-22T23:25:00.480Z,13.99
2023-11-22T23:30:00.612Z,13.57
2023-11-22T23:35:02.443Z,13.37
2023-11-22T23:40:00.841Z,13.32
2023-11-22T23:45:04.537Z,13.41
2023-11-22T23:50:00.368Z,13.90
2023-11-22T23:55:02.582Z,13.54
